sensor_id;sensor_type;location;lat;lon;timestamp;temperature;humidity
22787;DHT22;63134;52.020;4.714;2023-03-14T00:02:31;13.00;76.30
22787;DHT22;63134;52.020;4.714;2023-03-14T00:05:16;13.00;76.20
22787;DHT22;63134;52.020;4.714;2023-03-14T00:08:02;13.10;76.00
22787;DHT22;63134;52.020;4.714;2023-03-14T00:10:50;13.20;75.50
22787;DHT22;63134;52.020;4.714;2023-03-14T00:13:36;13.10;75.60
22787;DHT22;63134;52.020;4.714;2023-03-14T00:16:22;13.20;75.60
22787;DHT22;63134;52.020;4.714;2023-03-14T00:19:08;13.00;76.20
22787;DHT22;63134;52.020;4.714;2023-03-14T00:21:53;12.90;76.70
22787;DHT22;63134;52.020;4.714;2023-03-14T00:24:39;12.80;77.10
22787;DHT22;63134;52.020;4.714;2023-03-14T00:27:24;12.80;77.30
22787;DHT22;63134;52.020;4.714;2023-03-14T00:30:10;12.80;77.50
22787;DHT22;63134;52.020;4.714;2023-03-14T00:32:58;12.70;77.80
22787;DHT22;63134;52.020;4.714;2023-03-14T00:35:52;12.70;78.30
22787;DHT22;63134;52.020;4.714;2023-03-14T00:38:39;12.70;78.90
22787;DHT22;63134;52.020;4.714;2023-03-14T00:41:24;12.60;80.20
22787;DHT22;63134;52.020;4.714;2023-03-14T00:44:10;12.50;81.10
22787;DHT22;63134;52.020;4.714;2023-03-14T00:46:55;12.30;81.70
22787;DHT22;63134;52.020;4.714;2023-03-14T00:49:42;12.40;81.60
22787;DHT22;63134;52.020;4.714;2023-03-14T00:52:28;12.50;82.00
22787;DHT22;63134;52.020;4.714;2023-03-14T00:55:14;12.40;82.30
22787;DHT22;63134;52.020;4.714;2023-03-14T00:58:02;12.30;82.90
22787;DHT22;63134;52.020;4.714;2023-03-14T01:00:47;12.30;83.20
22787;DHT22;63134;52.020;4.714;2023-03-14T01:03:33;12.30;83.50
22787;DHT22;63134;52.020;4.714;2023-03-14T01:06:24;12.20;83.80
22787;DHT22;63134;52.020;4.714;2023-03-14T01:09:09;12.30;83.70
22787;DHT22;63134;52.020;4.714;2023-03-14T01:11:55;12.20;84.50
22787;DHT22;63134;52.020;4.714;2023-03-14T01:14:41;12.10;84.30
22787;DHT22;63134;52.020;4.714;2023-03-14T01:17:26;12.20;84.30
22787;DHT22;63134;52.020;4.714;2023-03-14T01:20:14;12.20;84.20
22787;DHT22;63134;52.020;4.714;2023-03-14T01:23:00;12.20;84.60
22787;DHT22;63134;52.020;4.714;2023-03-14T01:25:45;12.20;85.40
22787;DHT22;63134;52.020;4.714;2023-03-14T01:28:31;12.20;84.80
22787;DHT22;63134;52.020;4.714;2023-03-14T01:31:17;12.20;84.60
22787;DHT22;63134;52.020;4.714;2023-03-14T01:34:02;12.20;84.90
22787;DHT22;63134;52.020;4.714;2023-03-14T01:36:51;12.20;85.20
22787;DHT22;63134;52.020;4.714;2023-03-14T01:39:39;12.20;85.20
22787;DHT22;63134;52.020;4.714;2023-03-14T01:42:25;12.20;85.50
22787;DHT22;63134;52.020;4.714;2023-03-14T01:48:47;12.10;85.90
22787;DHT22;63134;52.020;4.714;2023-03-14T01:51:42;12.10;85.80
22787;DHT22;63134;52.020;4.714;2023-03-14T01:57:20;12.10;85.40
22787;DHT22;63134;52.020;4.714;2023-03-14T02:00:09;12.10;85.50
22787;DHT22;63134;52.020;4.714;2023-03-14T02:03:02;12.10;85.00
22787;DHT22;63134;52.020;4.714;2023-03-14T02:05:53;12.10;85.40
22787;DHT22;63134;52.020;4.714;2023-03-14T02:08:40;12.10;84.90
22787;DHT22;63134;52.020;4.714;2023-03-14T02:11:36;12.20;84.90
22787;DHT22;63134;52.020;4.714;2023-03-14T02:14:33;12.20;84.70
22787;DHT22;63134;52.020;4.714;2023-03-14T02:17:36;12.10;84.80
22787;DHT22;63134;52.020;4.714;2023-03-14T02:23:46;12.20;84.40
22787;DHT22;63134;52.020;4.714;2023-03-14T02:27:09;12.10;84.40
22787;DHT22;63134;52.020;4.714;2023-03-14T02:30:05;12.20;84.30
22787;DHT22;63134;52.020;4.714;2023-03-14T02:32:55;12.10;84.80
22787;DHT22;63134;52.020;4.714;2023-03-14T02:38:50;12.00;85.10
22787;DHT22;63134;52.020;4.714;2023-03-14T02:41:43;12.00;85.60
22787;DHT22;63134;52.020;4.714;2023-03-14T02:44:34;12.00;85.70
22787;DHT22;63134;52.020;4.714;2023-03-14T02:47:27;11.90;86.30
22787;DHT22;63134;52.020;4.714;2023-03-14T02:50:20;11.80;87.00
22787;DHT22;63134;52.020;4.714;2023-03-14T02:53:06;11.80;87.60
22787;DHT22;63134;52.020;4.714;2023-03-14T02:55:52;11.90;87.70
22787;DHT22;63134;52.020;4.714;2023-03-14T02:58:40;11.80;87.80
22787;DHT22;63134;52.020;4.714;2023-03-14T03:01:59;11.80;87.70
22787;DHT22;63134;52.020;4.714;2023-03-14T03:04:45;11.70;88.90
22787;DHT22;63134;52.020;4.714;2023-03-14T03:07:33;11.60;89.90
22787;DHT22;63134;52.020;4.714;2023-03-14T03:10:19;11.60;90.20
22787;DHT22;63134;52.020;4.714;2023-03-14T03:13:05;11.70;90.20
22787;DHT22;63134;52.020;4.714;2023-03-14T03:15:51;11.70;90.10
22787;DHT22;63134;52.020;4.714;2023-03-14T03:18:36;11.60;90.10
22787;DHT22;63134;52.020;4.714;2023-03-14T03:21:22;11.80;89.80
22787;DHT22;63134;52.020;4.714;2023-03-14T03:24:08;11.80;89.40
22787;DHT22;63134;52.020;4.714;2023-03-14T03:26:54;11.70;89.30
22787;DHT22;63134;52.020;4.714;2023-03-14T03:29:39;11.70;89.40
22787;DHT22;63134;52.020;4.714;2023-03-14T03:32:25;11.70;89.20
22787;DHT22;63134;52.020;4.714;2023-03-14T03:35:11;11.80;89.10
22787;DHT22;63134;52.020;4.714;2023-03-14T03:38:00;11.80;89.00
22787;DHT22;63134;52.020;4.714;2023-03-14T03:40:47;11.80;88.80
22787;DHT22;63134;52.020;4.714;2023-03-14T03:43:33;11.80;88.60
22787;DHT22;63134;52.020;4.714;2023-03-14T03:46:19;11.90;87.90
22787;DHT22;63134;52.020;4.714;2023-03-14T03:49:05;11.90;88.00
22787;DHT22;63134;52.020;4.714;2023-03-14T03:51:50;11.90;88.10
22787;DHT22;63134;52.020;4.714;2023-03-14T03:54:39;11.90;87.80
22787;DHT22;63134;52.020;4.714;2023-03-14T03:57:24;12.00;87.70
22787;DHT22;63134;52.020;4.714;2023-03-14T04:00:11;12.00;87.30
22787;DHT22;63134;52.020;4.714;2023-03-14T04:03:00;12.00;87.50
22787;DHT22;63134;52.020;4.714;2023-03-14T04:05:46;11.90;87.60
22787;DHT22;63134;52.020;4.714;2023-03-14T04:08:44;12.00;87.60
22787;DHT22;63134;52.020;4.714;2023-03-14T04:11:45;11.90;87.70
22787;DHT22;63134;52.020;4.714;2023-03-14T04:14:45;11.90;87.90
22787;DHT22;63134;52.020;4.714;2023-03-14T04:17:35;11.90;87.90
22787;DHT22;63134;52.020;4.714;2023-03-14T04:20:22;11.90;88.00
22787;DHT22;63134;52.020;4.714;2023-03-14T04:23:07;12.00;87.80
22787;DHT22;63134;52.020;4.714;2023-03-14T04:25:53;12.00;87.70
22787;DHT22;63134;52.020;4.714;2023-03-14T04:28:41;12.00;87.40
22787;DHT22;63134;52.020;4.714;2023-03-14T04:31:28;11.80;88.50
22787;DHT22;63134;52.020;4.714;2023-03-14T04:34:14;11.60;89.90
22787;DHT22;63134;52.020;4.714;2023-03-14T04:37:08;11.50;90.30
22787;DHT22;63134;52.020;4.714;2023-03-14T04:39:58;11.30;91.20
22787;DHT22;63134;52.020;4.714;2023-03-14T04:42:47;11.10;91.90
22787;DHT22;63134;52.020;4.714;2023-03-14T04:45:36;11.00;92.50
22787;DHT22;63134;52.020;4.714;2023-03-14T04:48:25;10.90;93.00
22787;DHT22;63134;52.020;4.714;2023-03-14T04:51:14;10.90;93.40
22787;DHT22;63134;52.020;4.714;2023-03-14T04:54:05;11.00;93.60
22787;DHT22;63134;52.020;4.714;2023-03-14T04:56:50;11.00;93.90
22787;DHT22;63134;52.020;4.714;2023-03-14T04:59:37;10.90;94.20
22787;DHT22;63134;52.020;4.714;2023-03-14T05:02:43;10.90;94.60
22787;DHT22;63134;52.020;4.714;2023-03-14T05:05:35;10.90;94.80
22787;DHT22;63134;52.020;4.714;2023-03-14T05:08:30;10.90;95.10
22787;DHT22;63134;52.020;4.714;2023-03-14T05:11:27;10.90;95.50
22787;DHT22;63134;52.020;4.714;2023-03-14T05:14:35;10.90;95.70
22787;DHT22;63134;52.020;4.714;2023-03-14T05:17:32;10.90;96.00
22787;DHT22;63134;52.020;4.714;2023-03-14T05:20:38;10.90;96.10
22787;DHT22;63134;52.020;4.714;2023-03-14T05:23:42;11.00;96.30
22787;DHT22;63134;52.020;4.714;2023-03-14T05:26:54;11.00;96.50
22787;DHT22;63134;52.020;4.714;2023-03-14T05:29:58;10.90;96.80
22787;DHT22;63134;52.020;4.714;2023-03-14T05:33:02;10.80;97.30
22787;DHT22;63134;52.020;4.714;2023-03-14T05:35:57;10.90;97.40
22787;DHT22;63134;52.020;4.714;2023-03-14T05:39:02;10.90;97.30
22787;DHT22;63134;52.020;4.714;2023-03-14T05:42:02;11.00;97.50
22787;DHT22;63134;52.020;4.714;2023-03-14T05:45:02;10.90;97.90
22787;DHT22;63134;52.020;4.714;2023-03-14T05:48:11;10.80;98.30
22787;DHT22;63134;52.020;4.714;2023-03-14T05:51:04;10.80;99.30
22787;DHT22;63134;52.020;4.714;2023-03-14T05:54:01;10.70;99.40
22787;DHT22;63134;52.020;4.714;2023-03-14T05:57:25;10.50;98.90
22787;DHT22;63134;52.020;4.714;2023-03-14T06:00:29;10.30;98.90
22787;DHT22;63134;52.020;4.714;2023-03-14T06:03:28;10.10;98.90
22787;DHT22;63134;52.020;4.714;2023-03-14T06:06:18;10.00;99.10
22787;DHT22;63134;52.020;4.714;2023-03-14T06:09:05;9.90;99.10
22787;DHT22;63134;52.020;4.714;2023-03-14T06:11:53;9.90;99.30
22787;DHT22;63134;52.020;4.714;2023-03-14T06:14:39;9.80;99.30
22787;DHT22;63134;52.020;4.714;2023-03-14T06:17:24;9.70;99.60
22787;DHT22;63134;52.020;4.714;2023-03-14T06:20:23;9.70;99.90
22787;DHT22;63134;52.020;4.714;2023-03-14T06:23:09;9.70;99.90
22787;DHT22;63134;52.020;4.714;2023-03-14T06:25:55;9.60;99.90
22787;DHT22;63134;52.020;4.714;2023-03-14T06:28:44;9.60;99.90
22787;DHT22;63134;52.020;4.714;2023-03-14T06:31:33;9.60;99.90
22787;DHT22;63134;52.020;4.714;2023-03-14T06:34:23;9.60;99.90
22787;DHT22;63134;52.020;4.714;2023-03-14T06:37:08;9.60;99.90
22787;DHT22;63134;52.020;4.714;2023-03-14T06:39:54;9.60;99.90
22787;DHT22;63134;52.020;4.714;2023-03-14T06:43:02;9.50;99.90
22787;DHT22;63134;52.020;4.714;2023-03-14T06:45:52;9.50;99.90
22787;DHT22;63134;52.020;4.714;2023-03-14T06:48:37;9.50;99.90
22787;DHT22;63134;52.020;4.714;2023-03-14T06:51:25;9.40;99.90
22787;DHT22;63134;52.020;4.714;2023-03-14T06:54:11;9.40;99.90
22787;DHT22;63134;52.020;4.714;2023-03-14T06:57:04;9.30;99.90
22787;DHT22;63134;52.020;4.714;2023-03-14T06:59:49;9.30;99.90
22787;DHT22;63134;52.020;4.714;2023-03-14T07:02:35;9.30;99.90
22787;DHT22;63134;52.020;4.714;2023-03-14T07:05:39;9.30;99.90
22787;DHT22;63134;52.020;4.714;2023-03-14T07:08:26;9.30;99.90
22787;DHT22;63134;52.020;4.714;2023-03-14T07:11:11;9.30;99.90
22787;DHT22;63134;52.020;4.714;2023-03-14T07:13:59;9.30;99.90
22787;DHT22;63134;52.020;4.714;2023-03-14T07:16:45;9.30;99.90
22787;DHT22;63134;52.020;4.714;2023-03-14T07:19:30;9.30;99.90
22787;DHT22;63134;52.020;4.714;2023-03-14T07:22:16;9.40;99.90
22787;DHT22;63134;52.020;4.714;2023-03-14T07:25:01;9.30;99.90
22787;DHT22;63134;52.020;4.714;2023-03-14T07:27:47;9.40;99.90
22787;DHT22;63134;52.020;4.714;2023-03-14T07:30:33;9.40;99.90
22787;DHT22;63134;52.020;4.714;2023-03-14T07:33:20;9.40;99.90
22787;DHT22;63134;52.020;4.714;2023-03-14T07:36:06;9.50;99.90
22787;DHT22;63134;52.020;4.714;2023-03-14T07:38:52;9.50;99.90
22787;DHT22;63134;52.020;4.714;2023-03-14T07:41:57;9.50;99.90
22787;DHT22;63134;52.020;4.714;2023-03-14T07:45:06;9.60;99.90
22787;DHT22;63134;52.020;4.714;2023-03-14T07:47:52;9.60;99.90
22787;DHT22;63134;52.020;4.714;2023-03-14T07:50:42;9.60;99.90
22787;DHT22;63134;52.020;4.714;2023-03-14T07:53:28;9.60;99.90
22787;DHT22;63134;52.020;4.714;2023-03-14T07:56:13;9.50;99.60
22787;DHT22;63134;52.020;4.714;2023-03-14T07:59:01;9.40;99.00
22787;DHT22;63134;52.020;4.714;2023-03-14T08:01:48;9.20;98.60
22787;DHT22;63134;52.020;4.714;2023-03-14T08:04:34;9.10;99.10
22787;DHT22;63134;52.020;4.714;2023-03-14T08:07:19;9.00;98.80
22787;DHT22;63134;52.020;4.714;2023-03-14T08:10:05;8.90;98.90
22787;DHT22;63134;52.020;4.714;2023-03-14T08:12:56;8.80;98.60
22787;DHT22;63134;52.020;4.714;2023-03-14T08:15:41;8.70;98.60
22787;DHT22;63134;52.020;4.714;2023-03-14T08:18:30;8.70;98.90
22787;DHT22;63134;52.020;4.714;2023-03-14T08:21:17;8.70;98.60
22787;DHT22;63134;52.020;4.714;2023-03-14T08:24:06;8.60;98.20
22787;DHT22;63134;52.020;4.714;2023-03-14T08:26:51;8.60;98.20
22787;DHT22;63134;52.020;4.714;2023-03-14T08:29:37;8.50;98.30
22787;DHT22;63134;52.020;4.714;2023-03-14T08:32:22;8.50;98.60
22787;DHT22;63134;52.020;4.714;2023-03-14T08:35:09;8.70;99.00
22787;DHT22;63134;52.020;4.714;2023-03-14T08:37:55;8.90;98.60
22787;DHT22;63134;52.020;4.714;2023-03-14T08:40:40;8.80;97.50
22787;DHT22;63134;52.020;4.714;2023-03-14T08:43:27;8.70;97.30
22787;DHT22;63134;52.020;4.714;2023-03-14T08:46:14;8.60;96.70
22787;DHT22;63134;52.020;4.714;2023-03-14T08:49:00;8.50;96.90
22787;DHT22;63134;52.020;4.714;2023-03-14T08:51:45;8.50;96.80
22787;DHT22;63134;52.020;4.714;2023-03-14T08:54:31;8.60;97.00
22787;DHT22;63134;52.020;4.714;2023-03-14T08:57:19;8.60;96.60
22787;DHT22;63134;52.020;4.714;2023-03-14T09:00:07;8.50;95.50
22787;DHT22;63134;52.020;4.714;2023-03-14T09:02:57;8.50;95.50
22787;DHT22;63134;52.020;4.714;2023-03-14T09:05:43;8.50;95.50
22787;DHT22;63134;52.020;4.714;2023-03-14T09:08:30;8.60;95.30
22787;DHT22;63134;52.020;4.714;2023-03-14T09:11:16;8.60;95.50
22787;DHT22;63134;52.020;4.714;2023-03-14T09:14:03;8.70;94.90
22787;DHT22;63134;52.020;4.714;2023-03-14T09:16:49;8.80;95.10
22787;DHT22;63134;52.020;4.714;2023-03-14T09:19:38;9.00;94.70
22787;DHT22;63134;52.020;4.714;2023-03-14T09:22:27;9.10;94.50
22787;DHT22;63134;52.020;4.714;2023-03-14T09:25:16;9.30;94.20
22787;DHT22;63134;52.020;4.714;2023-03-14T09:28:02;9.30;94.10
22787;DHT22;63134;52.020;4.714;2023-03-14T09:30:47;9.30;92.80
22787;DHT22;63134;52.020;4.714;2023-03-14T09:33:33;9.20;92.60
22787;DHT22;63134;52.020;4.714;2023-03-14T09:36:21;9.10;92.40
22787;DHT22;63134;52.020;4.714;2023-03-14T09:39:11;9.10;92.40
22787;DHT22;63134;52.020;4.714;2023-03-14T09:42:02;9.00;91.90
22787;DHT22;63134;52.020;4.714;2023-03-14T09:44:56;8.90;92.20
22787;DHT22;63134;52.020;4.714;2023-03-14T09:47:43;8.70;91.80
22787;DHT22;63134;52.020;4.714;2023-03-14T09:50:48;8.60;91.70
22787;DHT22;63134;52.020;4.714;2023-03-14T09:53:43;8.30;91.30
22787;DHT22;63134;52.020;4.714;2023-03-14T09:56:32;8.10;91.70
22787;DHT22;63134;52.020;4.714;2023-03-14T09:59:17;7.90;91.90
22787;DHT22;63134;52.020;4.714;2023-03-14T10:02:17;7.90;92.10
22787;DHT22;63134;52.020;4.714;2023-03-14T10:05:19;8.00;92.70
22787;DHT22;63134;52.020;4.714;2023-03-14T10:08:05;8.20;92.80
22787;DHT22;63134;52.020;4.714;2023-03-14T10:10:50;8.50;93.10
22787;DHT22;63134;52.020;4.714;2023-03-14T10:13:47;8.70;92.70
22787;DHT22;63134;52.020;4.714;2023-03-14T10:16:40;9.00;92.50
22787;DHT22;63134;52.020;4.714;2023-03-14T10:19:26;9.20;91.90
22787;DHT22;63134;52.020;4.714;2023-03-14T10:22:13;9.20;91.00
22787;DHT22;63134;52.020;4.714;2023-03-14T10:25:05;9.20;91.10
22787;DHT22;63134;52.020;4.714;2023-03-14T10:27:52;9.30;91.40
22787;DHT22;63134;52.020;4.714;2023-03-14T10:30:45;9.50;91.10
22787;DHT22;63134;52.020;4.714;2023-03-14T10:33:33;9.40;90.50
22787;DHT22;63134;52.020;4.714;2023-03-14T10:36:29;9.40;90.20
22787;DHT22;63134;52.020;4.714;2023-03-14T10:42:38;9.50;84.90
22787;DHT22;63134;52.020;4.714;2023-03-14T10:45:33;9.50;83.00
22787;DHT22;63134;52.020;4.714;2023-03-14T10:48:32;9.60;83.00
22787;DHT22;63134;52.020;4.714;2023-03-14T10:51:30;9.50;80.80
22787;DHT22;63134;52.020;4.714;2023-03-14T10:54:23;9.50;80.00
22787;DHT22;63134;52.020;4.714;2023-03-14T10:57:23;9.60;78.20
22787;DHT22;63134;52.020;4.714;2023-03-14T11:00:27;9.70;76.80
22787;DHT22;63134;52.020;4.714;2023-03-14T11:03:17;9.80;76.70
22787;DHT22;63134;52.020;4.714;2023-03-14T11:06:23;9.80;74.60
22787;DHT22;63134;52.020;4.714;2023-03-14T11:12:50;10.30;71.70
22787;DHT22;63134;52.020;4.714;2023-03-14T11:21:59;11.00;66.90
22787;DHT22;63134;52.020;4.714;2023-03-14T11:27:45;10.90;64.20
22787;DHT22;63134;52.020;4.714;2023-03-14T11:46:15;13.50;55.40
22787;DHT22;63134;52.020;4.714;2023-03-14T11:49:21;14.00;51.60
22787;DHT22;63134;52.020;4.714;2023-03-14T11:52:22;14.90;53.20
22787;DHT22;63134;52.020;4.714;2023-03-14T11:55:36;16.20;50.40
22787;DHT22;63134;52.020;4.714;2023-03-14T11:58:38;17.50;47.20
22787;DHT22;63134;52.020;4.714;2023-03-14T12:01:40;18.20;42.30
22787;DHT22;63134;52.020;4.714;2023-03-14T12:07:19;19.40;39.90
22787;DHT22;63134;52.020;4.714;2023-03-14T12:10:06;19.30;38.70
22787;DHT22;63134;52.020;4.714;2023-03-14T12:12:51;19.70;38.50
22787;DHT22;63134;52.020;4.714;2023-03-14T12:15:46;19.10;34.90
22787;DHT22;63134;52.020;4.714;2023-03-14T12:18:35;18.20;35.70
22787;DHT22;63134;52.020;4.714;2023-03-14T12:21:44;18.30;37.80
22787;DHT22;63134;52.020;4.714;2023-03-14T12:24:34;18.50;35.00
22787;DHT22;63134;52.020;4.714;2023-03-14T12:27:43;18.10;34.90
22787;DHT22;63134;52.020;4.714;2023-03-14T12:30:40;18.00;36.90
22787;DHT22;63134;52.020;4.714;2023-03-14T12:33:27;18.80;35.80
22787;DHT22;63134;52.020;4.714;2023-03-14T12:40:10;18.90;33.60
22787;DHT22;63134;52.020;4.714;2023-03-14T12:43:01;19.30;33.90
22787;DHT22;63134;52.020;4.714;2023-03-14T12:49:05;21.40;31.30
22787;DHT22;63134;52.020;4.714;2023-03-14T12:51:59;21.60;29.20
22787;DHT22;63134;52.020;4.714;2023-03-14T12:54:50;21.00;29.40
22787;DHT22;63134;52.020;4.714;2023-03-14T12:58:02;20.30;31.30
22787;DHT22;63134;52.020;4.714;2023-03-14T13:00:55;20.80;30.00
22787;DHT22;63134;52.020;4.714;2023-03-14T13:03:58;21.00;28.90
22787;DHT22;63134;52.020;4.714;2023-03-14T13:06:51;21.40;29.20
22787;DHT22;63134;52.020;4.714;2023-03-14T13:16:00;24.40;24.60
22787;DHT22;63134;52.020;4.714;2023-03-14T13:18:58;24.90;24.10
22787;DHT22;63134;52.020;4.714;2023-03-14T13:21:44;25.50;23.90
22787;DHT22;63134;52.020;4.714;2023-03-14T13:24:33;25.80;23.80
22787;DHT22;63134;52.020;4.714;2023-03-14T13:27:20;26.50;23.30
22787;DHT22;63134;52.020;4.714;2023-03-14T13:30:25;27.30;22.90
22787;DHT22;63134;52.020;4.714;2023-03-14T13:33:18;27.20;21.80
22787;DHT22;63134;52.020;4.714;2023-03-14T13:36:05;26.60;21.90
22787;DHT22;63134;52.020;4.714;2023-03-14T13:38:57;25.20;21.90
22787;DHT22;63134;52.020;4.714;2023-03-14T13:41:43;23.90;23.90
22787;DHT22;63134;52.020;4.714;2023-03-14T13:44:37;22.70;25.10
22787;DHT22;63134;52.020;4.714;2023-03-14T13:47:25;21.80;25.80
22787;DHT22;63134;52.020;4.714;2023-03-14T13:50:17;20.50;26.20
22787;DHT22;63134;52.020;4.714;2023-03-14T13:53:03;19.10;28.20
22787;DHT22;63134;52.020;4.714;2023-03-14T13:55:51;18.30;29.20
22787;DHT22;63134;52.020;4.714;2023-03-14T13:58:38;17.60;29.80
22787;DHT22;63134;52.020;4.714;2023-03-14T14:01:30;16.80;30.30
22787;DHT22;63134;52.020;4.714;2023-03-14T14:04:20;16.00;31.60
22787;DHT22;63134;52.020;4.714;2023-03-14T14:07:09;15.30;32.80
22787;DHT22;63134;52.020;4.714;2023-03-14T14:09:58;14.70;33.70
22787;DHT22;63134;52.020;4.714;2023-03-14T14:15:46;13.60;36.40
22787;DHT22;63134;52.020;4.714;2023-03-14T14:18:35;13.10;37.80
22787;DHT22;63134;52.020;4.714;2023-03-14T14:21:21;12.60;38.60
22787;DHT22;63134;52.020;4.714;2023-03-14T14:24:21;12.40;39.30
22787;DHT22;63134;52.020;4.714;2023-03-14T14:27:15;12.10;39.80
22787;DHT22;63134;52.020;4.714;2023-03-14T14:30:24;11.80;40.50
22787;DHT22;63134;52.020;4.714;2023-03-14T14:33:21;11.60;41.40
22787;DHT22;63134;52.020;4.714;2023-03-14T14:36:16;11.30;42.50
22787;DHT22;63134;52.020;4.714;2023-03-14T14:39:04;11.30;43.90
22787;DHT22;63134;52.020;4.714;2023-03-14T14:41:51;11.20;44.90
22787;DHT22;63134;52.020;4.714;2023-03-14T14:44:37;11.30;45.40
22787;DHT22;63134;52.020;4.714;2023-03-14T14:47:25;11.50;45.60
22787;DHT22;63134;52.020;4.714;2023-03-14T14:53:42;12.00;41.90
22787;DHT22;63134;52.020;4.714;2023-03-14T14:56:29;12.10;41.30
22787;DHT22;63134;52.020;4.714;2023-03-14T14:59:26;12.30;40.80
22787;DHT22;63134;52.020;4.714;2023-03-14T15:02:36;12.40;40.10
22787;DHT22;63134;52.020;4.714;2023-03-14T15:05:27;12.70;39.70
22787;DHT22;63134;52.020;4.714;2023-03-14T15:08:14;13.00;39.80
22787;DHT22;63134;52.020;4.714;2023-03-14T15:11:00;13.00;39.60
22787;DHT22;63134;52.020;4.714;2023-03-14T15:13:47;13.00;39.70
22787;DHT22;63134;52.020;4.714;2023-03-14T15:16:33;13.10;40.20
22787;DHT22;63134;52.020;4.714;2023-03-14T15:19:23;13.70;39.90
22787;DHT22;63134;52.020;4.714;2023-03-14T15:22:12;13.90;38.70
22787;DHT22;63134;52.020;4.714;2023-03-14T15:25:01;13.80;38.70
22787;DHT22;63134;52.020;4.714;2023-03-14T15:27:46;13.50;38.90
22787;DHT22;63134;52.020;4.714;2023-03-14T15:30:32;13.60;40.00
22787;DHT22;63134;52.020;4.714;2023-03-14T15:33:18;14.10;40.40
22787;DHT22;63134;52.020;4.714;2023-03-14T15:36:27;14.40;38.80
22787;DHT22;63134;52.020;4.714;2023-03-14T15:39:13;14.80;39.30
22787;DHT22;63134;52.020;4.714;2023-03-14T15:41:58;15.10;37.60
22787;DHT22;63134;52.020;4.714;2023-03-14T15:44:44;15.80;37.50
22787;DHT22;63134;52.020;4.714;2023-03-14T15:47:29;16.30;36.00
22787;DHT22;63134;52.020;4.714;2023-03-14T15:50:17;16.30;35.70
22787;DHT22;63134;52.020;4.714;2023-03-14T15:53:04;16.50;34.30
22787;DHT22;63134;52.020;4.714;2023-03-14T15:55:50;16.90;33.90
22787;DHT22;63134;52.020;4.714;2023-03-14T15:58:36;17.70;32.60
22787;DHT22;63134;52.020;4.714;2023-03-14T16:01:25;19.00;31.20
22787;DHT22;63134;52.020;4.714;2023-03-14T16:04:14;19.10;29.70
22787;DHT22;63134;52.020;4.714;2023-03-14T16:06:59;17.80;30.30
22787;DHT22;63134;52.020;4.714;2023-03-14T16:09:45;17.00;32.20
22787;DHT22;63134;52.020;4.714;2023-03-14T16:12:31;16.00;33.60
22787;DHT22;63134;52.020;4.714;2023-03-14T16:15:16;15.10;35.20
22787;DHT22;63134;52.020;4.714;2023-03-14T16:18:02;14.40;36.70
22787;DHT22;63134;52.020;4.714;2023-03-14T16:21:07;13.80;37.90
22787;DHT22;63134;52.020;4.714;2023-03-14T16:23:55;13.10;39.70
22787;DHT22;63134;52.020;4.714;2023-03-14T16:26:41;12.50;40.90
22787;DHT22;63134;52.020;4.714;2023-03-14T16:29:26;12.50;42.10
22787;DHT22;63134;52.020;4.714;2023-03-14T16:32:12;12.70;42.10
22787;DHT22;63134;52.020;4.714;2023-03-14T16:34:57;12.70;42.20
22787;DHT22;63134;52.020;4.714;2023-03-14T16:37:43;13.90;42.60
22787;DHT22;63134;52.020;4.714;2023-03-14T16:40:29;14.20;39.60
22787;DHT22;63134;52.020;4.714;2023-03-14T16:43:14;13.70;39.60
22787;DHT22;63134;52.020;4.714;2023-03-14T16:46:00;13.10;40.60
22787;DHT22;63134;52.020;4.714;2023-03-14T16:48:46;12.60;41.50
22787;DHT22;63134;52.020;4.714;2023-03-14T16:51:32;12.30;42.80
22787;DHT22;63134;52.020;4.714;2023-03-14T16:54:17;12.10;43.40
22787;DHT22;63134;52.020;4.714;2023-03-14T16:57:03;12.00;44.10
22787;DHT22;63134;52.020;4.714;2023-03-14T16:59:51;11.80;44.50
22787;DHT22;63134;52.020;4.714;2023-03-14T17:02:37;11.60;45.00
22787;DHT22;63134;52.020;4.714;2023-03-14T17:05:22;11.80;45.80
22787;DHT22;63134;52.020;4.714;2023-03-14T17:08:09;13.00;44.90
22787;DHT22;63134;52.020;4.714;2023-03-14T17:10:54;13.50;43.40
22787;DHT22;63134;52.020;4.714;2023-03-14T17:13:40;14.40;42.10
22787;DHT22;63134;52.020;4.714;2023-03-14T17:16:26;14.80;40.60
22787;DHT22;63134;52.020;4.714;2023-03-14T17:19:12;14.80;39.90
22787;DHT22;63134;52.020;4.714;2023-03-14T17:21:58;14.50;39.30
22787;DHT22;63134;52.020;4.714;2023-03-14T17:25:03;14.30;39.60
22787;DHT22;63134;52.020;4.714;2023-03-14T17:27:55;13.80;39.60
22787;DHT22;63134;52.020;4.714;2023-03-14T17:30:41;12.90;40.50
22787;DHT22;63134;52.020;4.714;2023-03-14T17:33:32;12.10;41.90
22787;DHT22;63134;52.020;4.714;2023-03-14T17:36:20;11.30;43.20
22787;DHT22;63134;52.020;4.714;2023-03-14T17:39:09;10.60;44.00
22787;DHT22;63134;52.020;4.714;2023-03-14T17:41:55;10.00;44.70
22787;DHT22;63134;52.020;4.714;2023-03-14T17:44:40;9.40;46.10
22787;DHT22;63134;52.020;4.714;2023-03-14T17:47:30;9.00;46.40
22787;DHT22;63134;52.020;4.714;2023-03-14T17:50:16;8.70;47.00
22787;DHT22;63134;52.020;4.714;2023-03-14T17:53:02;8.40;47.80
22787;DHT22;63134;52.020;4.714;2023-03-14T17:55:51;8.10;48.60
22787;DHT22;63134;52.020;4.714;2023-03-14T17:58:37;7.80;49.20
22787;DHT22;63134;52.020;4.714;2023-03-14T18:01:23;7.60;50.40
22787;DHT22;63134;52.020;4.714;2023-03-14T18:04:09;7.40;51.00
22787;DHT22;63134;52.020;4.714;2023-03-14T18:06:54;7.20;51.30
22787;DHT22;63134;52.020;4.714;2023-03-14T18:09:40;7.00;52.30
22787;DHT22;63134;52.020;4.714;2023-03-14T18:12:26;6.80;52.80
22787;DHT22;63134;52.020;4.714;2023-03-14T18:15:15;6.70;53.10
22787;DHT22;63134;52.020;4.714;2023-03-14T18:18:03;6.60;53.40
22787;DHT22;63134;52.020;4.714;2023-03-14T18:20:50;6.40;53.50
22787;DHT22;63134;52.020;4.714;2023-03-14T18:23:38;6.30;54.20
22787;DHT22;63134;52.020;4.714;2023-03-14T18:26:23;6.20;54.70
22787;DHT22;63134;52.020;4.714;2023-03-14T18:29:10;6.20;55.40
22787;DHT22;63134;52.020;4.714;2023-03-14T18:31:58;6.10;56.10
22787;DHT22;63134;52.020;4.714;2023-03-14T18:34:44;6.00;56.00
22787;DHT22;63134;52.020;4.714;2023-03-14T18:37:30;5.90;56.30
22787;DHT22;63134;52.020;4.714;2023-03-14T18:40:15;5.90;57.20
22787;DHT22;63134;52.020;4.714;2023-03-14T18:43:02;5.80;57.40
22787;DHT22;63134;52.020;4.714;2023-03-14T18:45:48;5.80;57.70
22787;DHT22;63134;52.020;4.714;2023-03-14T18:48:34;5.80;57.80
22787;DHT22;63134;52.020;4.714;2023-03-14T18:51:27;5.70;58.40
22787;DHT22;63134;52.020;4.714;2023-03-14T18:54:15;5.70;58.40
22787;DHT22;63134;52.020;4.714;2023-03-14T18:57:01;5.60;59.00
22787;DHT22;63134;52.020;4.714;2023-03-14T18:59:46;5.70;58.80
22787;DHT22;63134;52.020;4.714;2023-03-14T19:02:32;5.60;58.90
22787;DHT22;63134;52.020;4.714;2023-03-14T19:05:17;5.60;59.20
22787;DHT22;63134;52.020;4.714;2023-03-14T19:08:03;5.60;59.30
22787;DHT22;63134;52.020;4.714;2023-03-14T19:10:49;5.70;59.50